createdAt,value
2018-10-19T00:00:01.265Z,6.50
2018-10-19T00:02:29.726Z,6.50
2018-10-19T00:04:58.431Z,6.40
2018-10-19T00:07:26.986Z,6.30
2018-10-19T00:09:55.465Z,6.30
2018-10-19T00:12:23.921Z,6.30
2018-10-19T00:14:52.375Z,6.30
2018-10-19T00:17:20.829Z,6.20
2018-10-19T00:19:49.424Z,6.20
2018-10-19T00:22:17.860Z,6.10
2018-10-19T00:24:46.381Z,6.10
2018-10-19T00:27:15.009Z,6.10
2018-10-19T00:29:43.787Z,6.10
2018-10-19T00:32:12.395Z,6.00
2018-10-19T00:34:40.900Z,5.90
2018-10-19T00:37:10.321Z,5.90
2018-10-19T00:39:38.834Z,5.80
2018-10-19T00:42:07.298Z,5.80
2018-10-19T00:44:35.722Z,5.80
2018-10-19T00:47:04.305Z,5.80
2018-10-19T00:49:32.812Z,5.80
2018-10-19T00:52:01.286Z,5.80
2018-10-19T00:54:29.763Z,5.80
2018-10-19T00:56:58.179Z,5.80
2018-10-19T00:59:26.686Z,5.80
2018-10-19T01:01:55.117Z,5.80
2018-10-19T01:04:23.555Z,5.90
2018-10-19T01:06:52.704Z,5.90
2018-10-19T01:09:21.143Z,5.90
2018-10-19T01:11:49.573Z,5.80
2018-10-19T01:14:18.135Z,5.80
2018-10-19T01:16:46.587Z,5.80
2018-10-19T01:19:15.022Z,5.80
2018-10-19T01:21:43.437Z,5.70
2018-10-19T01:24:11.899Z,5.70
2018-10-19T01:26:40.344Z,5.60
2018-10-19T01:29:08.854Z,5.50
2018-10-19T01:31:39.583Z,5.50
2018-10-19T01:34:08.032Z,5.50
2018-10-19T01:36:42.884Z,5.50
2018-10-19T01:39:12.239Z,5.40
2018-10-19T01:41:41.398Z,5.40
2018-10-19T01:44:10.628Z,5.30
2018-10-19T01:46:43.411Z,5.30
2018-10-19T01:49:11.875Z,5.20
2018-10-19T01:51:40.307Z,5.20
2018-10-19T01:54:08.753Z,5.20
2018-10-19T01:56:37.356Z,5.20
2018-10-19T01:59:06.324Z,5.20
2018-10-19T02:01:34.925Z,5.20
2018-10-19T02:04:03.411Z,5.30
2018-10-19T02:06:32.204Z,5.20
2018-10-19T02:09:00.727Z,5.20
2018-10-19T02:11:29.239Z,5.10
2018-10-19T02:13:57.723Z,5.10
2018-10-19T02:16:26.173Z,5.10
2018-10-19T02:18:55.735Z,5.10
2018-10-19T02:21:24.212Z,5.00
2018-10-19T02:23:52.665Z,5.00
2018-10-19T02:26:21.139Z,5.00
2018-10-19T02:28:49.580Z,4.90
2018-10-19T02:31:18.294Z,4.90
2018-10-19T02:33:46.739Z,4.90
2018-10-19T02:36:15.205Z,4.90
2018-10-19T02:38:43.642Z,5.00
2018-10-19T02:41:12.116Z,5.00
2018-10-19T02:43:40.543Z,5.00
2018-10-19T02:46:09.009Z,5.00
2018-10-19T02:48:37.473Z,5.00
2018-10-19T02:51:06.036Z,4.90
2018-10-19T02:53:34.439Z,4.90
2018-10-19T02:56:02.892Z,4.80
2018-10-19T02:58:31.328Z,4.70
2018-10-19T03:01:00.521Z,4.70
2018-10-19T03:03:28.984Z,4.70
2018-10-19T03:05:57.557Z,4.60
2018-10-19T03:08:26.172Z,4.60
2018-10-19T03:10:54.804Z,4.60
2018-10-19T03:13:23.349Z,4.60
2018-10-19T03:15:51.816Z,4.50
2018-10-19T03:18:20.267Z,4.50
2018-10-19T03:20:49.590Z,4.60
2018-10-19T03:23:18.041Z,4.60
2018-10-19T03:25:46.484Z,4.50
2018-10-19T03:28:14.913Z,4.50
2018-10-19T03:30:43.421Z,4.50
2018-10-19T03:33:12.188Z,4.40
2018-10-19T03:35:40.578Z,4.40
2018-10-19T03:38:09.113Z,4.40
2018-10-19T03:40:37.676Z,4.30
2018-10-19T03:43:06.290Z,4.40
2018-10-19T03:45:35.630Z,4.40
2018-10-19T03:48:04.294Z,4.50
2018-10-19T03:50:32.816Z,4.50
2018-10-19T03:53:02.924Z,4.40
2018-10-19T03:55:31.352Z,4.40
2018-10-19T03:57:59.813Z,4.30
2018-10-19T04:00:28.272Z,4.30
2018-10-19T04:02:56.801Z,4.30
2018-10-19T04:05:25.805Z,4.30
2018-10-19T04:07:54.368Z,4.20
2018-10-19T04:10:23.401Z,4.20
2018-10-19T04:12:51.950Z,4.10
2018-10-19T04:15:20.421Z,4.10
2018-10-19T04:17:48.923Z,4.10
2018-10-19T04:20:17.386Z,4.00
2018-10-19T04:22:45.829Z,4.00
2018-10-19T04:25:14.324Z,4.00
2018-10-19T04:27:42.810Z,3.90
2018-10-19T04:30:11.204Z,3.90
2018-10-19T04:32:39.648Z,3.90
2018-10-19T04:35:08.205Z,3.90
2018-10-19T04:37:36.673Z,3.90
2018-10-19T04:40:05.860Z,3.80
2018-10-19T04:42:34.312Z,3.80
2018-10-19T04:45:02.963Z,3.70
2018-10-19T04:47:31.403Z,3.70
2018-10-19T04:49:59.864Z,3.80
2018-10-19T04:52:28.284Z,3.70
2018-10-19T04:54:56.736Z,3.70
2018-10-19T04:57:25.191Z,3.70
2018-10-19T04:59:53.742Z,3.70
2018-10-19T05:02:22.206Z,3.70
2018-10-19T05:04:50.738Z,3.70
2018-10-19T05:07:19.168Z,3.70
2018-10-19T05:09:48.280Z,3.70
2018-10-19T05:12:16.789Z,3.70
2018-10-19T05:14:45.276Z,3.60
2018-10-19T05:17:13.963Z,3.60
2018-10-19T05:19:42.480Z,3.60
2018-10-19T05:22:11.011Z,3.60
2018-10-19T05:24:39.693Z,3.70
2018-10-19T05:27:08.036Z,3.70
2018-10-19T05:29:36.578Z,3.70
2018-10-19T05:32:05.113Z,3.70
2018-10-19T05:34:33.537Z,3.60
2018-10-19T05:37:01.997Z,3.60
2018-10-19T05:39:30.510Z,3.60
2018-10-19T05:41:59.388Z,3.60
2018-10-19T05:44:27.871Z,3.60
2018-10-19T05:46:56.404Z,3.60
2018-10-19T05:49:24.874Z,3.60
2018-10-19T05:51:53.338Z,3.60
2018-10-19T05:54:21.787Z,3.60
2018-10-19T05:56:50.828Z,3.60
2018-10-19T05:59:19.363Z,3.60
2018-10-19T06:01:47.844Z,3.60
2018-10-19T06:04:16.353Z,3.60
2018-10-19T06:06:45.107Z,3.60
2018-10-19T06:09:13.719Z,3.60
2018-10-19T06:11:42.301Z,3.70
2018-10-19T06:14:11.152Z,3.70
2018-10-19T06:16:40.140Z,3.70
2018-10-19T06:19:09.924Z,3.80
2018-10-19T06:21:38.408Z,4.00
2018-10-19T06:24:08.151Z,4.10
2018-10-19T06:26:36.623Z,4.40
2018-10-19T06:29:05.162Z,4.60
2018-10-19T06:31:33.580Z,4.80
2018-10-19T06:34:02.040Z,5.10
2018-10-19T06:36:30.698Z,5.30
2018-10-19T06:38:59.762Z,5.60
2018-10-19T06:41:28.208Z,5.90
2018-10-19T06:43:56.980Z,6.20
2018-10-19T06:46:25.453Z,6.40
2018-10-19T06:48:54.043Z,6.50
2018-10-19T06:51:22.496Z,6.60
2018-10-19T06:53:50.928Z,6.50
2018-10-19T06:56:19.449Z,6.50
2018-10-19T06:58:47.936Z,6.60
2018-10-19T07:01:16.571Z,6.80
2018-10-19T07:03:45.123Z,7.30
2018-10-19T07:06:13.641Z,7.80
2018-10-19T07:08:42.039Z,8.10
2018-10-19T07:11:10.580Z,8.70
2018-10-19T07:13:39.167Z,8.90
2018-10-19T07:16:07.747Z,9.30
2018-10-19T07:18:36.215Z,9.70
2018-10-19T07:21:04.957Z,10.20
2018-10-19T07:23:33.520Z,10.10
2018-10-19T07:26:02.004Z,9.90
2018-10-19T07:28:31.477Z,9.90
2018-10-19T07:31:00.886Z,10.30
2018-10-19T07:33:29.342Z,10.50
2018-10-19T07:35:57.901Z,10.80
2018-10-19T07:38:26.455Z,11.30
2018-10-19T07:40:55.571Z,11.30
2018-10-19T07:43:24.205Z,11.60
2018-10-19T07:45:52.649Z,11.70
2018-10-19T07:48:21.060Z,11.80
2018-10-19T07:50:49.540Z,12.10
2018-10-19T07:53:17.997Z,12.00
2018-10-19T07:55:46.461Z,12.40
2018-10-19T07:58:14.923Z,12.40
2018-10-19T08:00:43.424Z,12.40
2018-10-19T08:03:11.899Z,12.20
2018-10-19T08:05:40.343Z,12.50
2018-10-19T08:08:08.960Z,12.60
2018-10-19T08:10:37.400Z,13.00
2018-10-19T08:13:05.980Z,13.40
2018-10-19T08:15:34.456Z,13.60
2018-10-19T08:18:03.271Z,14.00
2018-10-19T08:20:31.752Z,14.20
2018-10-19T08:23:00.239Z,14.20
2018-10-19T08:25:29.223Z,14.00
2018-10-19T08:27:57.790Z,13.90
2018-10-19T08:30:26.270Z,14.60
2018-10-19T08:32:54.720Z,14.70
2018-10-19T08:35:23.220Z,14.60
2018-10-19T08:37:51.781Z,14.70
2018-10-19T08:40:20.283Z,14.80
2018-10-19T08:42:48.848Z,15.60
2018-10-19T08:45:17.448Z,16.10
2018-10-19T08:47:45.954Z,16.10
2018-10-19T08:50:15.158Z,15.50
2018-10-19T08:52:43.813Z,15.40
2018-10-19T08:55:12.317Z,15.60
2018-10-19T08:57:40.790Z,15.20
2018-10-19T09:00:11.073Z,15.50
2018-10-19T09:02:39.861Z,16.00
2018-10-19T09:05:08.400Z,15.90
2018-10-19T09:07:37.000Z,15.50
2018-10-19T09:10:05.873Z,15.50
2018-10-19T09:12:34.411Z,15.80
2018-10-19T09:15:03.020Z,16.10
2018-10-19T09:17:31.473Z,16.50
2018-10-19T09:19:59.951Z,16.70
2018-10-19T09:22:28.488Z,16.60
2018-10-19T09:24:56.944Z,17.00
2018-10-19T09:27:25.488Z,17.20
2018-10-19T09:29:53.997Z,17.00
2018-10-19T09:32:22.452Z,17.40
2018-10-19T09:34:50.939Z,17.30
2018-10-19T09:37:19.420Z,17.30
2018-10-19T09:39:47.972Z,17.40
2018-10-19T09:42:16.757Z,17.00
2018-10-19T09:44:45.206Z,16.20
2018-10-19T09:47:13.809Z,16.10
2018-10-19T09:49:43.115Z,16.20
2018-10-19T09:52:11.576Z,16.60
2018-10-19T09:57:11.406Z,16.50
2018-10-19T09:59:39.879Z,16.30
2018-10-19T10:02:08.495Z,16.30
2018-10-19T10:04:36.932Z,16.10
2018-10-19T10:07:05.388Z,16.10
2018-10-19T10:09:34.019Z,16.30
2018-10-19T10:12:02.505Z,16.40
2018-10-19T10:14:30.972Z,16.40
2018-10-19T10:16:59.595Z,16.70
2018-10-19T10:19:28.072Z,17.00
2018-10-19T10:21:56.571Z,17.30
2018-10-19T10:24:25.403Z,17.50
2018-10-19T10:26:53.873Z,18.10
2018-10-19T10:29:22.359Z,18.30
2018-10-19T10:31:50.826Z,18.20
2018-10-19T10:34:19.284Z,18.60
2018-10-19T10:36:47.736Z,18.90
2018-10-19T10:39:16.317Z,18.80
2018-10-19T10:41:44.898Z,18.80
2018-10-19T10:44:13.346Z,19.40
2018-10-19T10:46:41.841Z,19.30
2018-10-19T10:49:10.355Z,19.70
2018-10-19T10:51:38.864Z,19.50
2018-10-19T10:54:07.650Z,19.50
2018-10-19T10:56:36.084Z,20.10
2018-10-19T10:59:04.616Z,20.00
2018-10-19T11:01:33.136Z,19.50
2018-10-19T11:04:01.640Z,19.70
2018-10-19T11:06:30.077Z,19.50
2018-10-19T11:08:58.491Z,19.50
2018-10-19T11:11:27.021Z,19.10
2018-10-19T11:13:55.586Z,18.80
2018-10-19T11:16:24.072Z,18.80
2018-10-19T11:18:52.524Z,19.20
2018-10-19T11:21:20.973Z,19.50
2018-10-19T11:23:49.464Z,19.30
2018-10-19T11:26:18.037Z,19.40
2018-10-19T11:28:46.631Z,19.40
2018-10-19T11:31:15.231Z,19.60
2018-10-19T11:33:43.642Z,19.90
2018-10-19T11:36:12.155Z,19.40
2018-10-19T11:38:40.617Z,19.40
2018-10-19T11:41:09.099Z,19.50
2018-10-19T11:43:37.661Z,19.60
2018-10-19T11:46:06.463Z,19.30
2018-10-19T11:48:34.973Z,19.80
2018-10-19T11:51:10.120Z,19.40
2018-10-19T11:53:38.589Z,19.20
2018-10-19T11:56:07.064Z,19.20
2018-10-19T11:58:35.613Z,19.00
2018-10-19T12:01:04.415Z,19.30
2018-10-19T12:03:32.854Z,19.60
2018-10-19T12:06:01.379Z,19.40
2018-10-19T12:08:29.825Z,19.40
2018-10-19T12:10:58.259Z,19.60
2018-10-19T12:13:26.737Z,19.40
2018-10-19T12:15:55.186Z,19.70
2018-10-19T12:18:23.633Z,19.90
2018-10-19T12:20:52.296Z,20.00
2018-10-19T12:23:20.730Z,20.40
2018-10-19T12:25:49.210Z,20.40
2018-10-19T12:28:17.715Z,20.30
2018-10-19T12:30:46.219Z,20.00
2018-10-19T12:33:14.867Z,20.20
2018-10-19T12:35:43.276Z,20.50
2018-10-19T12:38:11.792Z,20.40
2018-10-19T12:40:41.377Z,20.40
2018-10-19T12:43:09.917Z,20.20
2018-10-19T12:46:48.883Z,20.50
2018-10-19T12:49:18.995Z,20.40
2018-10-19T12:51:47.581Z,19.90
2018-10-19T12:54:16.317Z,20.20
2018-10-19T12:56:44.756Z,20.30
2018-10-19T12:59:13.739Z,20.10
2018-10-19T13:01:42.158Z,20.20
2018-10-19T13:04:10.700Z,20.20
2018-10-19T13:06:39.323Z,19.90
2018-10-19T13:09:10.870Z,20.00
2018-10-19T13:11:39.464Z,19.50
2018-10-19T13:14:07.987Z,19.10
2018-10-19T13:16:36.535Z,19.50
2018-10-19T13:19:05.238Z,19.20
2018-10-19T13:21:33.699Z,18.20
2018-10-19T13:24:02.467Z,17.90
2018-10-19T13:26:30.947Z,17.40
2018-10-19T13:28:59.454Z,17.30
2018-10-19T13:31:28.540Z,16.80
2018-10-19T13:33:57.110Z,16.60
2018-10-19T13:36:26.377Z,16.60
2018-10-19T13:38:54.982Z,16.60
2018-10-19T13:41:23.477Z,16.70
2018-10-19T13:43:51.991Z,16.40
2018-10-19T13:46:20.510Z,16.20
2018-10-19T13:48:49.572Z,16.20
2018-10-19T13:51:18.146Z,16.00
2018-10-19T13:53:46.625Z,15.90
2018-10-19T13:56:15.109Z,16.00
2018-10-19T13:58:44.262Z,15.70
2018-10-19T14:01:12.718Z,15.60
2018-10-19T14:03:41.281Z,15.60
2018-10-19T14:06:09.740Z,15.50
2018-10-19T14:08:38.217Z,15.30
2018-10-19T14:11:06.763Z,15.30
2018-10-19T14:13:35.203Z,15.10
2018-10-19T14:16:03.757Z,15.10
2018-10-19T14:18:32.883Z,15.10
2018-10-19T14:21:01.380Z,15.10
2018-10-19T14:23:31.257Z,14.80
2018-10-19T14:25:59.861Z,14.60
2018-10-19T14:28:28.309Z,14.60
2018-10-19T14:30:56.774Z,14.60
2018-10-19T14:33:25.388Z,14.50
2018-10-19T14:35:53.699Z,14.40
2018-10-19T14:38:22.151Z,14.30
2018-10-19T14:40:50.588Z,14.30
2018-10-19T14:43:19.158Z,14.10
2018-10-19T14:45:47.607Z,14.00
2018-10-19T14:48:16.154Z,14.00
2018-10-19T14:50:44.713Z,13.90
2018-10-19T14:53:13.385Z,13.90
2018-10-19T14:55:42.453Z,13.80
2018-10-19T14:58:10.929Z,13.70
2018-10-19T15:00:40.052Z,13.60
2018-10-19T15:03:08.721Z,13.50
2018-10-19T15:05:37.130Z,13.40
2018-10-19T15:08:05.747Z,13.30
2018-10-19T15:10:34.338Z,13.30
2018-10-19T15:13:02.756Z,13.20
2018-10-19T15:15:31.729Z,13.20
2018-10-19T15:18:00.305Z,13.10
2018-10-19T15:20:28.760Z,13.00
2018-10-19T15:22:58.555Z,13.00
2018-10-19T15:25:27.077Z,12.90
2018-10-19T15:27:55.555Z,12.80
2018-10-19T15:30:24.012Z,12.70
2018-10-19T15:32:52.452Z,12.60
2018-10-19T15:35:21.084Z,12.50
2018-10-19T15:37:49.530Z,12.30
2018-10-19T15:40:18.136Z,12.20
2018-10-19T15:42:46.617Z,12.10
2018-10-19T15:45:15.173Z,12.00
2018-10-19T15:47:43.696Z,11.90
2018-10-19T15:50:12.195Z,11.80
2018-10-19T15:52:40.669Z,11.60
2018-10-19T15:55:09.168Z,11.50
2018-10-19T15:57:37.652Z,11.40
2018-10-19T16:00:08.032Z,11.30
2018-10-19T16:02:36.508Z,11.20
2018-10-19T16:05:05.782Z,11.10
2018-10-19T16:07:34.943Z,11.00
2018-10-19T16:10:03.504Z,10.90
2018-10-19T16:12:31.996Z,10.80
2018-10-19T16:15:00.494Z,10.70
2018-10-19T16:17:29.148Z,10.60
2018-10-19T16:19:57.584Z,10.50
2018-10-19T16:22:26.040Z,10.40
2018-10-19T16:24:54.525Z,10.30
2018-10-19T16:27:23.116Z,10.30
2018-10-19T16:29:51.611Z,10.20
2018-10-19T16:32:20.124Z,10.10
2018-10-19T16:34:48.761Z,10.00
2018-10-19T16:37:17.196Z,9.90
2018-10-19T16:39:48.104Z,9.80
2018-10-19T16:42:16.657Z,9.70
2018-10-19T16:44:45.245Z,9.60
2018-10-19T16:47:13.814Z,9.60
2018-10-19T16:49:42.343Z,9.50
2018-10-19T16:52:11.000Z,9.40
2018-10-19T16:54:39.464Z,9.30
2018-10-19T16:57:08.092Z,9.30
2018-10-19T16:59:36.550Z,9.20
2018-10-19T17:02:05.374Z,9.10
2018-10-19T17:04:33.998Z,9.10
2018-10-19T17:07:02.452Z,9.00
2018-10-19T17:09:31.758Z,9.00
2018-10-19T17:12:00.280Z,8.90
2018-10-19T17:14:28.790Z,8.80
2018-10-19T17:16:57.256Z,8.80
2018-10-19T17:19:26.345Z,8.70
2018-10-19T17:21:55.457Z,8.60
2018-10-19T17:24:25.186Z,8.50
2018-10-19T17:26:53.729Z,8.50
2018-10-19T17:29:22.532Z,8.40
2018-10-19T17:31:51.099Z,8.30
2018-10-19T17:34:19.758Z,8.20
2018-10-19T17:36:48.340Z,8.10
2018-10-19T17:39:16.916Z,8.10
2018-10-19T17:41:45.458Z,8.00
2018-10-19T17:44:14.103Z,7.90
2018-10-19T17:46:43.181Z,7.90
2018-10-19T17:49:13.338Z,7.80
2018-10-19T17:51:41.824Z,7.80
2018-10-19T17:54:10.395Z,7.90
2018-10-19T17:56:38.808Z,7.80
2018-10-19T17:59:07.401Z,7.80
2018-10-19T18:01:35.897Z,7.70
2018-10-19T18:04:06.615Z,7.70
2018-10-19T18:06:36.005Z,7.70
2018-10-19T18:09:07.480Z,7.60
2018-10-19T18:11:36.093Z,7.60
2018-10-19T18:14:04.803Z,7.60
2018-10-19T18:16:35.556Z,7.60
2018-10-19T18:19:05.537Z,7.50
2018-10-19T18:21:34.477Z,7.50
2018-10-19T18:24:03.987Z,7.40
2018-10-19T18:26:32.502Z,7.40
2018-10-19T18:29:01.082Z,7.40
2018-10-19T18:31:29.554Z,7.30
2018-10-19T18:33:58.717Z,7.30
2018-10-19T18:36:27.706Z,7.20
2018-10-19T18:38:56.190Z,7.20
2018-10-19T18:41:24.834Z,7.20
2018-10-19T18:43:53.380Z,7.20
2018-10-19T18:46:21.893Z,7.20
2018-10-19T18:48:50.454Z,7.30
2018-10-19T18:51:19.095Z,7.20
2018-10-19T18:53:47.691Z,7.20
2018-10-19T18:56:16.378Z,7.10
2018-10-19T18:58:44.947Z,7.10
2018-10-19T19:01:13.487Z,7.00
2018-10-19T19:03:42.081Z,7.00
2018-10-19T19:06:10.583Z,6.90
2018-10-19T19:08:39.083Z,6.90
2018-10-19T19:11:07.653Z,6.90
2018-10-19T19:13:40.340Z,6.80
2018-10-19T19:16:14.264Z,6.80
2018-10-19T19:18:42.750Z,6.80
2018-10-19T19:21:11.826Z,6.70
2018-10-19T19:23:45.691Z,6.70
2018-10-19T19:26:14.919Z,6.70
2018-10-19T19:28:43.520Z,6.70
2018-10-19T19:31:12.325Z,6.60
2018-10-19T19:33:46.180Z,6.60
2018-10-19T19:36:14.701Z,6.60
2018-10-19T19:38:43.288Z,6.60
2018-10-19T19:41:17.267Z,6.70
2018-10-19T19:43:45.764Z,6.60
2018-10-19T19:46:14.280Z,6.60
2018-10-19T19:48:48.256Z,6.60
2018-10-19T19:51:16.729Z,6.50
2018-10-19T19:53:45.197Z,6.50
2018-10-19T19:56:14.163Z,6.50
2018-10-19T19:58:42.683Z,6.50
2018-10-19T20:01:11.435Z,6.50
2018-10-19T20:03:40.076Z,6.50
2018-10-19T20:06:08.886Z,6.50
2018-10-19T20:08:37.657Z,6.50
2018-10-19T20:11:06.822Z,6.50
2018-10-19T20:13:35.399Z,6.40
2018-10-19T20:16:03.919Z,6.40
2018-10-19T20:18:32.463Z,6.40
2018-10-19T20:21:01.154Z,6.40
2018-10-19T20:23:30.341Z,6.40
2018-10-19T20:25:58.957Z,6.40
2018-10-19T20:28:27.508Z,6.40
2018-10-19T20:30:56.010Z,6.40
2018-10-19T20:33:24.733Z,6.40
2018-10-19T20:35:53.176Z,6.30
2018-10-19T20:38:21.661Z,6.30
2018-10-19T20:40:50.196Z,6.20
2018-10-19T20:43:19.300Z,6.20
2018-10-19T20:45:48.063Z,6.20
2018-10-19T20:48:17.146Z,6.10
2018-10-19T20:50:45.762Z,6.10
2018-10-19T20:53:14.475Z,6.10
2018-10-19T20:55:43.041Z,6.10
2018-10-19T20:58:11.705Z,6.10
2018-10-19T21:00:40.464Z,6.10
2018-10-19T21:03:09.110Z,6.10
2018-10-19T21:05:37.585Z,6.00
2018-10-19T21:08:06.438Z,6.00
2018-10-19T21:10:35.006Z,5.90
2018-10-19T21:13:03.544Z,5.90
2018-10-19T21:15:32.158Z,5.80
2018-10-19T21:18:00.688Z,5.80
2018-10-19T21:20:29.258Z,5.70
2018-10-19T21:22:57.750Z,5.70
2018-10-19T21:25:26.274Z,5.70
2018-10-19T21:27:54.833Z,5.70
2018-10-19T21:30:23.401Z,5.60
2018-10-19T21:32:51.877Z,5.60
2018-10-19T21:35:20.367Z,5.60
2018-10-19T21:37:48.874Z,5.60
2018-10-19T21:40:17.406Z,5.60
2018-10-19T21:42:45.977Z,5.60
2018-10-19T21:45:14.578Z,5.60
2018-10-19T21:47:44.936Z,5.50
2018-10-19T21:50:13.437Z,5.50
2018-10-19T21:52:41.951Z,5.50
2018-10-19T21:55:11.677Z,5.40
2018-10-19T21:57:40.454Z,5.40
2018-10-19T22:00:09.781Z,5.30
2018-10-19T22:02:38.324Z,5.20
2018-10-19T22:05:07.278Z,5.10
2018-10-19T22:07:35.927Z,5.10
2018-10-19T22:10:04.784Z,5.10
2018-10-19T22:12:33.821Z,5.10
2018-10-19T22:15:02.460Z,5.10
2018-10-19T22:17:30.985Z,5.10
2018-10-19T22:19:59.534Z,5.00
2018-10-19T22:22:28.047Z,5.00
2018-10-19T22:24:56.627Z,5.00
2018-10-19T22:27:25.144Z,5.00
2018-10-19T22:29:53.598Z,4.90
2018-10-19T22:32:22.205Z,4.90
2018-10-19T22:34:50.683Z,4.90
2018-10-19T22:37:19.199Z,4.90
2018-10-19T22:39:47.674Z,4.90
2018-10-19T22:42:16.182Z,4.90
2018-10-19T22:44:44.666Z,4.80
2018-10-19T22:47:13.551Z,4.90
2018-10-19T22:49:42.117Z,4.80
2018-10-19T22:52:10.614Z,4.80
2018-10-19T22:54:39.121Z,4.80
2018-10-19T22:57:07.548Z,4.70
2018-10-19T22:59:35.980Z,4.80
2018-10-19T23:02:04.808Z,4.90
2018-10-19T23:04:33.281Z,4.90
2018-10-19T23:07:01.814Z,5.00
2018-10-19T23:09:30.320Z,5.10
2018-10-19T23:11:59.244Z,5.20
2018-10-19T23:14:27.746Z,5.30
2018-10-19T23:16:56.239Z,5.40
2018-10-19T23:19:24.660Z,5.40
2018-10-19T23:21:53.141Z,5.50
2018-10-19T23:24:21.749Z,5.50
2018-10-19T23:26:50.241Z,5.60
2018-10-19T23:29:18.847Z,5.70
2018-10-19T23:31:47.372Z,5.70
2018-10-19T23:34:16.044Z,5.70
2018-10-19T23:36:44.522Z,5.80
2018-10-19T23:39:13.242Z,5.80
2018-10-19T23:41:42.151Z,5.80
2018-10-19T23:44:10.637Z,5.80
2018-10-19T23:46:39.134Z,5.80
2018-10-19T23:49:08.846Z,5.80
2018-10-19T23:51:37.427Z,5.80
2018-10-19T23:54:06.113Z,5.80
2018-10-19T23:56:34.696Z,5.80
